createdAt,value
2022-09-24T00:00:20.470Z,3.20
2022-09-24T00:04:45.782Z,2.73
2022-09-24T00:09:14.355Z,3.00
2022-09-24T00:13:40.698Z,3.40
2022-09-24T00:18:07.999Z,3.80
2022-09-24T00:22:33.671Z,3.47
2022-09-24T00:26:59.527Z,3.13
2022-09-24T00:31:25.295Z,3.40
2022-09-24T00:35:51.846Z,2.93
2022-09-24T00:40:17.688Z,3.00
2022-09-24T00:44:53.709Z,3.20
2022-09-24T00:49:20.160Z,3.20
2022-09-24T00:53:49.295Z,3.33
2022-09-24T00:58:14.923Z,3.37
2022-09-24T01:02:45.073Z,3.17
2022-09-24T01:07:10.319Z,2.90
2022-09-24T01:12:14.511Z,3.03
2022-09-24T01:17:23.327Z,3.57
2022-09-24T01:21:57.775Z,3.47
2022-09-24T01:26:36.244Z,3.53
2022-09-24T01:31:11.106Z,3.00
2022-09-24T01:35:44.506Z,2.90
2022-09-24T01:40:11.678Z,3.10
2022-09-24T01:44:38.813Z,3.80
2022-09-24T01:49:04.140Z,3.57
2022-09-24T01:54:01.687Z,3.63
2022-09-24T01:58:36.888Z,3.80
2022-09-24T02:03:11.758Z,3.70
2022-09-24T02:07:45.688Z,3.53
2022-09-24T02:12:29.714Z,3.70
2022-09-24T02:16:55.482Z,5.50
2022-09-24T02:21:24.134Z,5.03
2022-09-24T02:26:02.419Z,5.27
2022-09-24T02:30:27.634Z,5.10
2022-09-24T02:34:57.753Z,5.77
2022-09-24T02:39:23.041Z,5.53
2022-09-24T02:43:48.359Z,5.77
2022-09-24T02:48:13.553Z,6.80
2022-09-24T02:52:38.739Z,6.47
2022-09-24T02:57:03.923Z,5.80
2022-09-24T03:01:30.270Z,5.57
2022-09-24T03:05:55.531Z,4.33
2022-09-24T03:10:20.767Z,5.03
2022-09-24T03:14:45.970Z,5.60
2022-09-24T03:19:11.152Z,5.23
2022-09-24T03:23:37.049Z,5.60
2022-09-24T03:28:02.420Z,5.60
2022-09-24T03:32:27.793Z,5.13
2022-09-24T03:36:52.972Z,5.00
2022-09-24T03:41:19.055Z,4.70
2022-09-24T03:45:44.390Z,4.80
2022-09-24T03:50:12.733Z,5.20
2022-09-24T03:54:37.911Z,5.00
2022-09-24T03:59:03.154Z,4.60
2022-09-24T04:03:28.371Z,5.00
2022-09-24T04:07:53.536Z,4.30
2022-09-24T04:12:18.712Z,4.47
2022-09-24T04:16:44.230Z,3.70
2022-09-24T04:21:09.979Z,4.53
2022-09-24T04:25:35.179Z,3.80
2022-09-24T04:30:00.347Z,4.17
2022-09-24T04:34:25.568Z,4.60
2022-09-24T04:38:50.988Z,4.23
2022-09-24T04:43:17.483Z,3.90
2022-09-24T04:47:42.674Z,4.57
2022-09-24T04:52:08.906Z,4.13
2022-09-24T04:56:34.184Z,3.80
2022-09-24T05:01:04.007Z,4.30
2022-09-24T05:05:29.638Z,4.37
2022-09-24T05:09:54.791Z,4.50
2022-09-24T05:14:19.947Z,3.60
2022-09-24T05:18:45.124Z,3.90
2022-09-24T05:23:10.571Z,4.00
2022-09-24T05:27:36.152Z,3.70
2022-09-24T05:32:08.170Z,3.93
2022-09-24T05:36:33.698Z,3.90
2022-09-24T05:40:59.094Z,4.00
2022-09-24T05:45:24.386Z,3.90
2022-09-24T05:49:49.574Z,4.23
2022-09-24T05:54:14.883Z,3.97
2022-09-24T05:58:40.326Z,4.03
2022-09-24T06:03:12.724Z,4.27
2022-09-24T06:07:38.288Z,4.73
2022-09-24T06:12:03.706Z,4.57
2022-09-24T06:16:29.191Z,4.47
2022-09-24T06:20:55.412Z,4.87
2022-09-24T06:25:20.601Z,5.10
2022-09-24T06:29:45.759Z,5.77
2022-09-24T06:34:10.902Z,5.43
2022-09-24T06:38:36.719Z,6.10
2022-09-24T06:43:02.003Z,6.23
2022-09-24T06:47:27.236Z,6.30
2022-09-24T06:51:54.375Z,6.70
2022-09-24T06:56:19.969Z,7.20
2022-09-24T07:00:55.019Z,7.60
2022-09-24T07:05:20.532Z,7.40
2022-09-24T07:09:45.997Z,7.93
2022-09-24T07:14:11.257Z,7.70
2022-09-24T07:18:38.605Z,8.47
2022-09-24T07:23:06.068Z,8.20
2022-09-24T07:27:31.280Z,8.83
2022-09-24T07:31:56.536Z,9.10
2022-09-24T07:36:22.488Z,8.47
2022-09-24T07:40:48.062Z,9.10
2022-09-24T07:45:13.472Z,10.33
2022-09-24T07:49:38.992Z,10.63
2022-09-24T07:54:04.791Z,10.00
2022-09-24T07:58:30.024Z,10.50
2022-09-24T08:02:56.512Z,9.20
2022-09-24T08:07:21.848Z,9.10
2022-09-24T08:11:50.087Z,9.30
2022-09-24T08:16:16.471Z,8.83
2022-09-24T08:20:54.710Z,8.67
2022-09-24T08:25:19.921Z,9.70
2022-09-24T08:29:45.519Z,9.00
2022-09-24T08:34:11.118Z,9.90
2022-09-24T08:38:36.882Z,11.23
2022-09-24T08:43:37.991Z,11.97
2022-09-24T08:48:20.206Z,12.37
2022-09-24T08:53:15.556Z,11.27
2022-09-24T08:57:55.919Z,12.50
2022-09-24T09:02:49.224Z,13.87
2022-09-24T09:07:43.095Z,13.37
2022-09-24T09:12:18.235Z,12.37
2022-09-24T09:17:06.708Z,12.53
2022-09-24T09:21:52.373Z,10.93
2022-09-24T09:31:00.322Z,8.50
2022-09-24T10:25:24.591Z,7.83
2022-09-24T10:30:13.234Z,9.10
2022-09-24T10:34:38.422Z,8.90
2022-09-24T10:39:15.723Z,10.40
2022-09-24T10:43:51.717Z,10.10
2022-09-24T10:48:42.856Z,11.20
